Time;durP1;ratioP1;P1;durP2;ratioP2;P2;SDS_P1;SDS_P2;PMS_P1;PMS_P2;Temp;Humidity;BMP_temperature;BMP_pressure;BME280_temperature;BME280_humidity;BME280_pressure;Samples;Min_cycle;Max_cycle;Signal;HPM_P1;HPM_P2
2023/10/20 00:01:33;;;;;;;17.40;15.70;;;;;;;12.05;94.45;93588.19;4990327;28;20169;-69
2023/10/20 00:03:59;;;;;;;19.70;16.13;;;;;;;12.23;93.15;93597.91;4989715;28;20204;-70
2023/10/20 00:06:24;;;;;;;16.67;15.07;;;;;;;12.37;92.50;93600.06;4988396;28;20778;-69
2023/10/20 00:08:49;;;;;;;17.83;15.93;;;;;;;12.19;92.45;93596.56;4989787;28;20183;-69
2023/10/20 00:11:15;;;;;;;18.40;16.60;;;;;;;12.16;92.82;93591.59;4989554;28;20183;-71
2023/10/20 00:13:40;;;;;;;15.90;14.30;;;;;;;12.05;94.54;93582.94;4989661;28;20190;-70
2023/10/20 00:16:06;;;;;;;18.37;16.63;;;;;;;12.18;93.45;93584.38;4990042;28;20267;-70
2023/10/20 00:18:31;;;;;;;18.53;16.60;;;;;;;12.14;93.46;93573.34;4990040;28;20169;-69
2023/10/20 00:20:57;;;;;;;19.83;15.47;;;;;;;12.12;93.45;93569.19;4990169;28;20262;-69
2023/10/20 00:23:23;;;;;;;19.10;17.37;;;;;;;12.02;94.54;93567.47;4989700;28;20215;-70
2023/10/20 00:25:48;;;;;;;19.30;17.30;;;;;;;11.98;94.08;93573.16;4989469;28;20974;-70
2023/10/20 00:28:14;;;;;;;18.50;16.70;;;;;;;11.93;95.11;93563.06;4989766;28;20180;-71
2023/10/20 00:30:40;;;;;;;20.43;18.43;;;;;;;11.91;95.14;93572.09;4990016;28;20165;-69
2023/10/20 00:33:05;;;;;;;20.43;18.13;;;;;;;11.90;95.57;93575.66;4980684;28;20177;-70
2023/10/20 00:35:31;;;;;;;20.83;18.77;;;;;;;11.92;95.17;93564.03;4969708;28;20460;-71
2023/10/20 00:37:57;;;;;;;24.97;18.87;;;;;;;11.97;95.02;93567.03;4970080;28;20173;-70
2023/10/20 00:40:22;;;;;;;22.20;20.10;;;;;;;11.99;94.90;93565.09;4970114;28;20879;-71
2023/10/20 00:42:49;;;;;;;25.07;22.07;;;;;;;11.90;95.07;93571.22;4970086;28;20620;-71
2023/10/20 00:45:14;;;;;;;26.87;22.07;;;;;;;11.91;95.73;93562.38;4968070;28;20197;-70
2023/10/20 00:47:40;;;;;;;24.17;21.87;;;;;;;11.99;94.73;93551.16;4969710;28;20429;-70
2023/10/20 00:50:11;;;;;;;23.40;19.87;;;;;;;11.93;94.57;93554.34;4969842;28;20202;-71
2023/10/20 00:52:37;;;;;;;24.93;22.00;;;;;;;11.93;95.75;93552.56;4969769;28;20174;-70
2023/10/20 00:55:07;;;;;;;24.03;21.47;;;;;;;11.98;95.09;93552.13;4968164;28;20520;-71
2023/10/20 00:57:34;;;;;;;25.47;22.77;;;;;;;11.95;94.88;93548.00;4962197;28;20463;-70
2023/10/20 00:59:59;;;;;;;25.97;21.60;;;;;;;12.00;95.00;93543.13;4969173;28;20417;-69
2023/10/20 01:02:24;;;;;;;21.97;19.77;;;;;;;12.10;94.50;93534.38;4969022;28;20409;-70
2023/10/20 01:04:50;;;;;;;21.43;19.23;;;;;;;12.19;93.34;93529.03;4968938;28;20233;-69
2023/10/20 01:07:15;;;;;;;21.50;19.23;;;;;;;12.29;92.21;93544.75;4967128;28;20189;-69
2023/10/20 01:09:42;;;;;;;21.80;19.60;;;;;;;12.30;92.94;93530.63;4963561;28;20198;-69
2023/10/20 01:12:08;;;;;;;21.33;18.20;;;;;;;12.25;92.08;93528.44;4969565;28;20174;-70
2023/10/20 01:14:35;;;;;;;20.50;18.40;;;;;;;12.19;93.14;93515.91;4969191;28;20786;-70
2023/10/20 01:17:00;;;;;;;20.00;17.17;;;;;;;12.28;92.50;93508.91;4968646;28;20259;-70
2023/10/20 01:19:25;;;;;;;23.60;18.00;;;;;;;12.32;91.88;93499.75;4968991;28;20467;-70
2023/10/20 01:21:51;;;;;;;20.60;18.50;;;;;;;12.20;93.28;93493.06;4969213;28;20173;-70
2023/10/20 01:24:16;;;;;;;22.17;19.87;;;;;;;12.22;93.80;93491.13;4969386;28;20220;-70
2023/10/20 01:26:43;;;;;;;26.07;18.97;;;;;;;12.20;92.97;93488.63;4969369;28;20218;-70
2023/10/20 01:29:12;;;;;;;20.60;18.40;;;;;;;12.22;92.28;93491.13;4969472;28;20170;-70
2023/10/20 01:31:37;;;;;;;19.33;17.40;;;;;;;12.28;92.37;93486.09;4969449;28;20908;-70
2023/10/20 01:34:03;;;;;;;20.80;18.60;;;;;;;12.19;92.47;93486.97;4986005;28;20419;-70
2023/10/20 01:36:28;;;;;;;18.40;16.50;;;;;;;12.33;91.77;93482.16;4988627;28;20197;-70
2023/10/20 01:38:54;;;;;;;20.60;18.40;;;;;;;12.37;91.82;93473.84;4988493;28;20173;-70
2023/10/20 01:41:19;;;;;;;20.27;18.30;;;;;;;12.39;91.66;93478.94;4988502;28;20184;-69
2023/10/20 01:43:44;;;;;;;22.07;19.70;;;;;;;12.11;93.16;93460.59;4988161;28;20212;-70
2023/10/20 01:46:10;;;;;;;18.87;17.07;;;;;;;12.04;93.44;93446.41;4988078;28;20690;-69
2023/10/20 01:48:35;;;;;;;21.27;18.97;;;;;;;12.11;92.68;93442.19;4988127;28;20191;-70
2023/10/20 01:51:01;;;;;;;22.30;19.00;;;;;;;12.03;93.56;93418.47;4988038;28;20640;-70
2023/10/20 01:53:26;;;;;;;24.00;21.40;;;;;;;11.87;93.67;93387.59;4987945;28;20590;-70
2023/10/20 01:55:52;;;;;;;24.53;21.93;;;;;;;11.95;94.46;93384.22;4987702;28;20201;-70
2023/10/20 01:58:18;;;;;;;26.33;21.90;;;;;;;12.03;93.70;93381.69;4988161;28;20185;-70
2023/10/20 02:00:44;;;;;;;23.30;20.80;;;;;;;12.12;92.76;93379.94;4988075;28;20192;-70
2023/10/20 02:03:10;;;;;;;24.10;21.50;;;;;;;12.08;92.13;93353.94;4988640;28;20420;-69
2023/10/20 02:05:36;;;;;;;26.50;22.33;;;;;;;11.93;93.11;93347.59;4990343;28;20216;-70
2023/10/20 02:08:02;;;;;;;24.47;21.87;;;;;;;11.85;93.93;93331.72;4988163;28;20408;-70
2023/10/20 02:10:28;;;;;;;23.73;21.37;;;;;;;11.88;93.20;93317.47;4987968;28;20192;-70
2023/10/20 02:12:53;;;;;;;26.03;22.30;;;;;;;11.77;93.90;93323.75;4987833;28;20416;-70
2023/10/20 02:15:18;;;;;;;23.80;20.63;;;;;;;11.82;94.20;93339.91;4987331;28;20223;-69
2023/10/20 02:17:44;;;;;;;25.37;22.77;;;;;;;11.69;94.16;93321.03;4987763;28;20208;-70
2023/10/20 02:20:09;;;;;;;25.67;22.87;;;;;;;11.62;95.63;93311.16;4987786;28;20181;-69
2023/10/20 02:22:35;;;;;;;25.83;23.13;;;;;;;11.66;94.13;93291.47;4987898;28;20181;-71
2023/10/20 02:25:00;;;;;;;26.60;23.57;;;;;;;11.68;94.76;93285.25;4987950;28;20243;-69
2023/10/20 02:27:28;;;;;;;29.93;25.60;;;;;;;11.64;93.90;93277.66;4987807;28;20208;-69
2023/10/20 02:29:55;;;;;;;27.47;23.97;;;;;;;11.68;93.76;93285.25;4986931;28;20181;-70
2023/10/20 02:32:20;;;;;;;27.87;24.97;;;;;;;11.67;94.21;93297.56;4984697;28;20421;-70
2023/10/20 02:34:45;;;;;;;30.33;25.13;;;;;;;11.56;94.37;93305.66;4968201;28;20459;-69
2023/10/20 02:37:12;;;;;;;28.33;25.23;;;;;;;11.60;93.69;93314.91;4968423;28;20205;-69
2023/10/20 02:39:37;;;;;;;31.67;26.00;;;;;;;11.44;94.42;93315.56;4968454;28;20192;-69
2023/10/20 02:42:03;;;;;;;30.77;26.50;;;;;;;11.34;95.26;93312.16;4968530;28;20516;-69
2023/10/20 02:44:30;;;;;;;33.70;28.67;;;;;;;11.29;95.74;93324.91;4967909;28;20289;-69
2023/10/20 02:46:55;;;;;;;37.53;30.20;;;;;;;11.33;95.35;93321.00;4968331;28;20202;-70
2023/10/20 02:49:20;;;;;;;35.13;28.93;;;;;;;11.35;95.50;93313.81;4968244;28;20416;-70
2023/10/20 02:51:46;;;;;;;35.63;29.50;;;;;;;11.34;95.56;93310.38;4968197;28;20265;-70
2023/10/20 02:54:12;;;;;;;38.30;27.70;;;;;;;11.33;94.65;93297.38;4968099;28;20161;-70
2023/10/20 02:56:37;;;;;;;37.20;30.93;;;;;;;11.26;95.37;93285.81;4968167;28;20726;-70
2023/10/20 02:59:03;;;;;;;36.50;28.43;;;;;;;11.29;95.99;93283.75;4967856;28;20409;-69
2023/10/20 03:01:30;;;;;;;36.27;30.73;;;;;;;11.33;94.99;93269.31;4967633;28;20182;-70
2023/10/20 03:03:55;;;;;;;37.70;29.17;;;;;;;11.30;95.16;93264.38;4967597;28;20527;-70
2023/10/20 03:06:22;;;;;;;37.17;31.27;;;;;;;11.27;95.56;93259.44;4967733;28;20433;-68
2023/10/20 03:08:47;;;;;;;36.57;30.20;;;;;;;11.26;95.14;93249.91;4967698;28;20180;-70
2023/10/20 03:11:13;;;;;;;35.30;28.90;;;;;;;11.18;95.17;93234.09;4967955;28;20437;-69
2023/10/20 03:13:38;;;;;;;35.90;28.03;;;;;;;11.13;94.66;93226.66;4967822;28;20166;-69
2023/10/20 03:16:05;;;;;;;35.90;29.00;;;;;;;11.09;95.33;93229.72;4967639;28;20617;-70
2023/10/20 03:18:30;;;;;;;35.27;29.93;;;;;;;11.12;95.21;93213.66;4968111;28;20185;-69
2023/10/20 03:21:01;;;;;;;36.20;29.00;;;;;;;11.24;94.09;93222.97;4967864;28;20408;-70
2023/10/20 03:23:27;;;;;;;35.70;30.60;;;;;;;11.19;93.68;93227.84;4967631;28;20923;-70
2023/10/20 03:25:52;;;;;;;32.30;27.87;;;;;;;11.15;93.83;93216.84;4967109;28;20452;-71
2023/10/20 03:28:18;;;;;;;31.47;28.00;;;;;;;11.23;93.67;93210.84;4967595;28;20201;-70
2023/10/20 03:30:43;;;;;;;34.87;28.50;;;;;;;11.31;93.26;93204.81;4967551;28;20209;-70
2023/10/20 03:33:13;;;;;;;32.20;28.27;;;;;;;11.27;93.73;93198.22;4976679;28;20169;-70
2023/10/20 03:35:38;;;;;;;34.73;28.13;;;;;;;11.20;93.06;93195.41;4986596;28;20189;-71
2023/10/20 03:38:05;;;;;;;37.43;29.57;;;;;;;11.09;93.94;93201.69;4986802;28;20796;-71
2023/10/20 03:40:32;;;;;;;32.93;29.37;;;;;;;11.11;93.41;93197.09;4987504;28;20208;-70
2023/10/20 03:42:58;;;;;;;35.23;30.10;;;;;;;11.19;92.95;93197.16;4991001;28;20895;-70
2023/10/20 03:45:24;;;;;;;36.43;30.17;;;;;;;11.12;93.08;93198.75;4990612;28;20970;-70
2023/10/20 03:47:50;;;;;;;34.00;29.83;;;;;;;11.08;93.20;93197.41;4990982;28;20439;-69
2023/10/20 03:50:16;;;;;;;33.87;30.00;;;;;;;11.05;93.69;93179.31;4990936;28;20430;-70
2023/10/20 03:52:44;;;;;;;34.83;30.27;;;;;;;11.01;94.21;93176.19;4990715;28;20416;-69
2023/10/20 03:55:13;;;;;;;35.30;29.67;;;;;;;11.08;93.68;93165.94;4990215;28;20207;-71
2023/10/20 03:57:40;;;;;;;37.20;32.10;;;;;;;11.01;93.16;93146.50;4990601;28;20427;-69
2023/10/20 04:03:08;;;;;;;33.30;29.80;;;;;;;11.07;93.42;93138.00;4967928;28;20531;-69
2023/10/20 04:05:34;;;;;;;36.70;30.80;;;;;;;11.06;93.29;93135.56;4967792;28;20458;-69
2023/10/20 04:07:59;;;;;;;35.50;28.80;;;;;;;11.00;92.88;93131.72;4990508;28;20251;-69
2023/10/20 04:10:25;;;;;;;35.07;29.53;;;;;;;11.02;93.14;93125.34;4990279;28;20180;-70
2023/10/20 04:12:50;;;;;;;42.40;32.00;;;;;;;10.97;93.52;93126.78;4989766;28;20181;-70
2023/10/20 04:15:16;;;;;;;35.13;29.90;;;;;;;11.00;92.65;93113.34;4989593;28;20603;-69
2023/10/20 04:17:51;;;;;;;36.63;32.27;;;;;;;10.94;92.26;93108.72;4989779;28;20173;-69
2023/10/20 04:20:18;;;;;;;36.40;32.07;;;;;;;10.86;92.62;93111.25;4990049;28;20427;-70
2023/10/20 04:22:49;;;;;;;44.87;34.80;;;;;;;10.66;94.46;93110.59;4990328;28;20418;-70
2023/10/20 04:25:18;;;;;;;42.90;33.17;;;;;;;10.79;93.40;93105.78;4989692;28;20483;-71
2023/10/20 04:54:45;;;;;;;42.97;35.30;;;;;;;10.29;93.10;93049.41;4969553;28;20972;-71
2023/10/20 04:57:40;;;;;;;42.93;35.17;;;;;;;10.38;93.35;93052.94;4970285;28;20417;-70
2023/10/20 05:07:50;;;;;;;49.20;37.30;;;;;;;10.25;93.47;93018.38;4968806;28;20516;-69
2023/10/20 05:10:15;;;;;;;42.23;34.63;;;;;;;10.34;92.76;93005.22;4967501;28;20496;-69
2023/10/20 05:12:41;;;;;;;48.43;36.80;;;;;;;10.47;92.15;92983.09;4967326;28;20201;-71
2023/10/20 05:15:10;;;;;;;40.30;35.80;;;;;;;10.34;92.79;92975.59;4967405;28;20841;-70
2023/10/20 05:17:35;;;;;;;45.53;37.43;;;;;;;10.26;92.63;92963.22;4967463;28;20189;-71
2023/10/20 05:20:01;;;;;;;42.03;34.80;;;;;;;10.20;92.61;92965.59;4967302;28;20492;-70
2023/10/20 05:22:27;;;;;;;44.80;35.90;;;;;;;10.10;92.92;92963.06;4968756;28;20714;-70
2023/10/20 05:24:52;;;;;;;45.63;37.43;;;;;;;10.20;93.36;92966.41;4966677;28;20225;-71
2023/10/20 05:27:18;;;;;;;48.10;39.27;;;;;;;10.24;93.22;92962.53;4967671;28;20212;-70
2023/10/20 05:29:43;;;;;;;49.27;38.23;;;;;;;10.14;92.83;92952.13;4963677;28;20190;-71
2023/10/20 05:32:08;;;;;;;44.20;37.20;;;;;;;10.08;92.73;92942.22;4969273;28;20232;-70
2023/10/20 05:34:34;;;;;;;39.80;35.50;;;;;;;10.18;92.62;92929.06;4964544;28;20189;-70
2023/10/20 05:37:00;;;;;;;46.40;38.23;;;;;;;10.03;93.33;92917.47;4973814;28;20209;-71
2023/10/20 05:39:25;;;;;;;51.47;36.17;;;;;;;9.85;94.40;92913.06;4965175;28;20211;-70
2023/10/20 05:41:50;;;;;;;45.43;36.23;;;;;;;9.96;93.87;92915.44;4964033;28;20744;-71
2023/10/20 05:44:21;;;;;;;50.73;37.87;;;;;;;10.00;94.09;92926.44;4964943;28;20546;-71
2023/10/20 05:46:47;;;;;;;48.97;37.07;;;;;;;10.14;92.85;92925.13;4970114;28;20209;-71
2023/10/20 05:49:12;;;;;;;46.27;36.70;;;;;;;10.15;92.95;92911.84;4966758;28;21068;-70
2023/10/20 05:51:38;;;;;;;45.33;37.27;;;;;;;10.06;92.39;92910.16;4966960;28;20197;-70
2023/10/20 05:54:03;;;;;;;46.27;36.07;;;;;;;9.98;93.41;92904.00;4966262;28;20239;-70
2023/10/20 05:56:29;;;;;;;45.67;37.00;;;;;;;10.00;93.07;92884.53;4966422;28;20201;-70
2023/10/20 05:58:54;;;;;;;52.30;38.63;;;;;;;9.96;93.40;92855.19;4966424;28;20190;-70
2023/10/20 06:01:20;;;;;;;43.87;37.03;;;;;;;9.93;93.60;92846.84;4964594;28;20197;-70
2023/10/20 06:03:45;;;;;;;53.57;39.53;;;;;;;9.86;94.04;92858.88;4961061;28;20213;-70
2023/10/20 06:06:10;;;;;;;44.73;36.83;;;;;;;9.85;93.63;92852.81;4968023;28;20212;-71
2023/10/20 06:08:36;;;;;;;42.83;36.23;;;;;;;9.82;94.23;92810.41;4964889;28;20233;-70
2023/10/20 06:11:05;;;;;;;49.27;38.50;;;;;;;9.86;94.02;92812.56;4971774;28;20552;-70
2023/10/20 06:13:32;;;;;;;52.20;39.03;;;;;;;9.91;93.96;92814.72;4958102;28;20223;-70
2023/10/20 06:15:59;;;;;;;48.67;39.40;;;;;;;9.85;93.80;92800.47;4965225;28;20565;-70
2023/10/20 06:18:24;;;;;;;50.33;38.23;;;;;;;9.74;94.54;92816.41;4964686;28;20440;-69
2023/10/20 06:20:50;;;;;;;52.23;40.17;;;;;;;9.71;94.74;92809.66;4965718;28;20444;-71
2023/10/20 06:23:16;;;;;;;55.60;43.33;;;;;;;9.93;93.99;92808.38;4962566;28;20236;-71
2023/10/20 06:25:42;;;;;;;57.20;41.30;;;;;;;9.92;94.22;92787.56;4963714;28;20315;-70
2023/10/20 06:28:07;;;;;;;52.17;39.47;;;;;;;10.00;93.63;92798.09;4963894;28;20531;-70
2023/10/20 06:30:37;;;;;;;51.80;39.40;;;;;;;9.93;93.86;92782.16;4962438;28;20225;-70
2023/10/20 06:33:20;;;;;;;46.93;39.00;;;;;;;10.04;93.59;92788.97;4962098;28;20621;-70
2023/10/20 06:35:52;;;;;;;48.57;38.90;;;;;;;10.05;93.56;92802.88;4958685;28;20464;-71
2023/10/20 06:38:35;;;;;;;51.40;38.37;;;;;;;10.12;92.99;92778.53;4966326;28;20755;-69
2023/10/20 06:41:03;;;;;;;48.20;36.50;;;;;;;10.25;93.05;92787.78;4962246;28;20503;-68
2023/10/20 06:43:30;;;;;;;44.50;36.87;;;;;;;10.22;92.41;92773.19;4961304;28;20477;-70
2023/10/20 06:46:04;;;;;;;47.13;36.53;;;;;;;10.27;93.20;92798.94;4962179;28;20452;-69
2023/10/20 06:48:30;;;;;;;46.90;37.80;;;;;;;10.06;92.75;92757.38;4957641;28;20475;-69
2023/10/20 06:50:56;;;;;;;45.57;38.10;;;;;;;10.05;93.20;92748.69;4962627;28;20939;-68
2023/10/20 06:53:21;;;;;;;51.57;39.80;;;;;;;10.16;93.26;92758.09;4964546;28;20271;-70
2023/10/20 06:55:48;;;;;;;52.30;41.10;;;;;;;10.11;93.80;92752.47;4961354;28;20460;-69
2023/10/20 06:58:13;;;;;;;57.00;41.93;;;;;;;10.13;93.23;92709.47;4958533;28;20186;-69
2023/10/20 07:00:40;;;;;;;49.77;38.53;;;;;;;10.15;93.54;92719.78;4965661;28;20435;-68
2023/10/20 07:03:05;;;;;;;50.63;41.13;;;;;;;10.21;92.83;92740.13;4965649;28;20185;-69
2023/10/20 07:05:31;;;;;;;44.87;37.13;;;;;;;10.26;92.31;92756.19;4964570;28;20455;-69
2023/10/20 07:07:59;;;;;;;45.87;40.47;;;;;;;10.27;92.84;92701.97;4964383;28;20247;-69
2023/10/20 07:10:27;;;;;;;48.67;39.77;;;;;;;10.21;92.44;92700.00;4963727;28;20661;-68
2023/10/20 07:12:53;;;;;;;51.03;38.07;;;;;;;10.21;93.02;92706.06;4962283;28;20444;-69
2023/10/20 07:15:18;;;;;;;54.17;45.23;;;;;;;10.05;93.56;92729.53;4964256;28;20487;-69
2023/10/20 07:17:44;;;;;;;51.13;40.87;;;;;;;10.14;93.45;92684.91;4968882;28;20174;-67
2023/10/20 07:20:09;;;;;;;57.20;42.60;;;;;;;10.34;92.70;92703.84;4968231;28;20280;-68
2023/10/20 07:22:35;;;;;;;49.97;38.57;;;;;;;10.34;91.89;92711.72;4971781;28;20681;-69
2023/10/20 07:25:00;;;;;;;50.63;38.50;;;;;;;10.22;92.51;92707.69;4971560;28;20295;-69
2023/10/20 07:27:26;;;;;;;46.40;39.13;;;;;;;10.22;92.60;92705.06;4969894;28;20188;-68
2023/10/20 07:29:52;;;;;;;52.07;38.70;;;;;;;10.41;91.94;92695.38;4969102;28;20192;-70
2023/10/20 07:32:17;;;;;;;51.60;40.37;;;;;;;10.37;92.27;92708.78;4979851;28;20826;-69
2023/10/20 07:34:43;;;;;;;49.87;38.43;;;;;;;10.33;91.67;92711.88;4971084;28;20716;-69
2023/10/20 07:37:08;;;;;;;45.70;39.40;;;;;;;10.40;92.69;92709.47;4971639;28;20261;-69
2023/10/20 07:39:34;;;;;;;52.63;37.90;;;;;;;10.42;92.76;92715.34;4975077;28;20182;-69
2023/10/20 07:41:59;;;;;;;48.23;40.47;;;;;;;10.53;91.50;92709.81;4970541;28;20196;-68
2023/10/20 07:44:24;;;;;;;48.73;38.73;;;;;;;10.56;91.44;92731.31;4971407;28;20531;-69
2023/10/20 07:46:50;;;;;;;53.97;40.20;;;;;;;10.63;90.89;92722.81;4971180;28;20190;-67
2023/10/20 07:49:16;;;;;;;48.50;39.57;;;;;;;10.65;91.50;92716.44;4970730;28;20181;-68
2023/10/20 07:51:41;;;;;;;45.27;37.57;;;;;;;10.58;91.24;92729.38;4970141;28;20545;-69
2023/10/20 07:54:08;;;;;;;42.37;37.63;;;;;;;10.80;90.20;92735.84;4969933;28;20177;-70
2023/10/20 07:56:34;;;;;;;70.10;39.90;;;;;;;10.90;88.88;92724.41;4969959;28;20220;-67
2023/10/20 07:59:00;;;;;;;39.73;35.00;;;;;;;10.75;90.20;92701.41;4968938;28;20468;-70
2023/10/20 08:01:25;;;;;;;44.67;35.50;;;;;;;10.71;90.66;92712.38;4967680;28;20755;-69
2023/10/20 08:03:52;;;;;;;46.30;34.30;;;;;;;10.85;90.63;92722.25;4977578;28;20684;-68
2023/10/20 08:06:18;;;;;;;47.67;37.73;;;;;;;10.85;89.41;92730.13;4970662;28;20743;-68
2023/10/20 08:08:44;;;;;;;45.60;37.20;;;;;;;10.94;89.12;92736.22;4976528;28;20427;-68
2023/10/20 08:11:10;;;;;;;44.83;36.27;;;;;;;10.88;89.71;92734.22;4970029;28;20851;-70
2023/10/20 08:13:37;;;;;;;45.43;35.20;;;;;;;10.85;90.10;92737.16;4968563;28;20205;-69
2023/10/20 08:16:04;;;;;;;42.50;34.93;;;;;;;10.99;89.09;92737.38;4967422;28;20487;-69
2023/10/20 08:18:33;;;;;;;39.63;33.43;;;;;;;11.24;88.25;92724.28;4967102;28;20421;-69
2023/10/20 08:21:09;;;;;;;41.40;35.83;;;;;;;11.23;87.98;92733.97;4967029;28;20452;-69
2023/10/20 08:23:38;;;;;;;45.80;35.10;;;;;;;11.10;88.52;92736.25;4960785;28;20460;-69
2023/10/20 08:26:04;;;;;;;43.43;36.17;;;;;;;11.31;87.29;92756.78;4967895;28;20507;-69
2023/10/20 08:28:30;;;;;;;41.83;35.30;;;;;;;11.46;87.16;92738.63;4964247;28;20532;-69
2023/10/20 08:31:09;;;;;;;37.07;33.20;;;;;;;11.28;88.00;92719.56;4968131;28;20535;-69
2023/10/20 08:33:35;;;;;;;38.47;34.27;;;;;;;11.20;88.66;92729.06;4965845;28;20542;-69
2023/10/20 08:36:12;;;;;;;39.00;32.37;;;;;;;11.26;87.68;92735.44;4962914;28;20548;-69
2023/10/20 08:38:42;;;;;;;44.77;34.27;;;;;;;11.36;87.84;92767.66;4968909;28;20472;-69
2023/10/20 08:41:13;;;;;;;45.60;34.33;;;;;;;11.25;88.45;92757.44;4968919;28;20440;-68
2023/10/20 08:43:40;;;;;;;38.60;33.93;;;;;;;11.45;87.19;92752.72;4968819;28;20491;-69
2023/10/20 08:46:09;;;;;;;50.10;36.77;;;;;;;11.37;88.43;92776.34;4967114;28;20468;-70
2023/10/20 08:48:43;;;;;;;45.23;35.27;;;;;;;11.56;86.66;92786.53;4969830;28;20432;-69
2023/10/20 08:51:11;;;;;;;41.17;33.80;;;;;;;11.52;86.40;92777.31;4947876;28;20445;-69
2023/10/20 08:53:37;;;;;;;47.23;37.57;;;;;;;11.42;86.89;92771.41;4968666;28;20485;-69
2023/10/20 08:56:04;;;;;;;43.67;33.23;;;;;;;11.68;85.28;92792.28;4967278;28;20947;-69
2023/10/20 08:58:31;;;;;;;38.13;33.40;;;;;;;11.56;86.03;92789.16;4968374;28;20220;-69
2023/10/20 09:00:57;;;;;;;41.63;34.37;;;;;;;11.46;87.51;92799.00;4966442;28;20515;-68
2023/10/20 09:03:25;;;;;;;37.63;31.83;;;;;;;11.51;87.24;92783.56;4963948;28;20520;-69
2023/10/20 09:05:52;;;;;;;46.77;34.67;;;;;;;11.71;86.71;92820.03;4967280;28;21402;-70
2023/10/20 09:08:17;;;;;;;39.70;34.00;;;;;;;11.82;84.69;92802.16;4962811;28;20433;-69
2023/10/20 09:10:45;;;;;;;39.30;33.90;;;;;;;11.61;85.59;92805.25;4967608;28;20447;-68
2023/10/20 09:13:11;;;;;;;42.27;32.67;;;;;;;11.58;86.37;92818.72;4965790;28;20532;-69
2023/10/20 09:15:37;;;;;;;40.10;35.67;;;;;;;11.65;86.51;92824.16;4962936;28;20488;-69
2023/10/20 09:18:06;;;;;;;42.30;32.60;;;;;;;11.74;86.05;92819.69;4966825;28;20506;-69
2023/10/20 09:20:33;;;;;;;43.03;33.53;;;;;;;11.67;86.41;92811.69;4967734;28;20188;-68
2023/10/20 09:22:58;;;;;;;38.07;32.77;;;;;;;11.78;85.98;92816.59;4967556;28;20436;-69
2023/10/20 09:25:26;;;;;;;41.07;33.30;;;;;;;11.89;85.16;92826.00;4966153;28;20468;-70
2023/10/20 09:27:51;;;;;;;34.80;31.10;;;;;;;11.89;84.69;92827.81;4965439;28;20248;-70
2023/10/20 09:30:18;;;;;;;40.07;34.07;;;;;;;11.95;84.17;92856.91;4965629;28;20436;-69
2023/10/20 09:32:43;;;;;;;38.87;32.77;;;;;;;12.06;84.31;92858.38;4968785;28;20178;-69
2023/10/20 09:35:09;;;;;;;38.97;34.73;;;;;;;12.02;84.24;92841.28;4959505;28;20480;-68
2023/10/20 09:37:38;;;;;;;37.43;32.07;;;;;;;12.17;84.19;92857.22;4966442;28;20251;-69
2023/10/20 09:40:08;;;;;;;40.57;32.50;;;;;;;12.40;82.91;92870.53;4965779;28;20190;-70
2023/10/20 09:42:51;;;;;;;35.43;31.50;;;;;;;12.45;81.82;92870.88;4962486;28;20437;-70
2023/10/20 09:45:27;;;;;;;44.03;30.43;;;;;;;12.44;82.46;92893.69;4963800;28;20556;-69
2023/10/20 09:48:00;;;;;;;40.57;32.37;;;;;;;12.47;81.99;92897.81;4965174;28;20487;-70
2023/10/20 09:50:26;;;;;;;43.30;33.00;;;;;;;12.47;82.11;92901.28;4964901;28;20460;-68
2023/10/20 09:52:52;;;;;;;40.07;33.47;;;;;;;12.68;81.86;92905.19;4966563;28;20425;-70
2023/10/20 09:55:19;;;;;;;47.67;36.30;;;;;;;13.02;80.81;92906.81;4967021;28;20468;-70
2023/10/20 09:57:47;;;;;;;39.80;33.33;;;;;;;13.15;79.90;92914.97;4966007;28;20436;-68
2023/10/20 10:00:12;;;;;;;44.70;34.77;;;;;;;13.26;79.53;92933.06;4967837;28;20468;-70
2023/10/20 10:02:38;;;;;;;39.73;34.97;;;;;;;13.27;79.36;92924.19;4966966;28;20472;-68
2023/10/20 10:05:08;;;;;;;43.40;35.13;;;;;;;13.28;79.32;92915.31;4965946;28;20205;-69
2023/10/20 10:07:34;;;;;;;52.10;34.47;;;;;;;13.31;79.18;92920.25;4963221;28;20617;-71
2023/10/20 10:10:00;;;;;;;48.57;31.97;;;;;;;13.36;79.01;92943.44;4962207;28;20460;-68
2023/10/20 10:12:27;;;;;;;44.27;32.77;;;;;;;13.57;78.00;92956.03;4967034;28;20185;-68
2023/10/20 10:15:07;;;;;;;37.90;33.50;;;;;;;13.82;77.23;92971.75;4964637;28;20174;-68
2023/10/20 10:17:45;;;;;;;34.20;30.40;;;;;;;13.82;77.15;92969.13;4968021;28;20513;-68
2023/10/20 10:20:24;;;;;;;44.90;33.87;;;;;;;13.84;77.34;92964.50;4965481;28;20523;-69
2023/10/20 10:23:00;;;;;;;37.83;32.53;;;;;;;13.80;77.08;92965.84;4963222;28;20433;-68
2023/10/20 10:25:35;;;;;;;38.83;31.23;;;;;;;13.82;77.74;92995.47;4965875;28;20840;-67
2023/10/20 10:28:13;;;;;;;34.47;30.87;;;;;;;13.83;77.58;92981.31;4966128;28;20463;-67
2023/10/20 10:30:39;;;;;;;38.63;32.07;;;;;;;14.16;77.16;93003.09;4965722;28;20443;-67
2023/10/20 10:33:10;;;;;;;40.97;30.03;;;;;;;14.41;75.81;92990.59;4965859;28;20444;-68
2023/10/20 10:35:38;;;;;;;33.23;29.23;;;;;;;14.47;75.52;92989.88;4952572;28;20519;-70
2023/10/20 10:38:04;;;;;;;38.23;27.53;;;;;;;14.72;74.27;92990.59;4965866;28;20442;-69
2023/10/20 10:40:29;;;;;;;33.27;29.00;;;;;;;14.80;73.96;92993.16;4960101;28;20468;-69
2023/10/20 10:42:55;;;;;;;42.50;28.90;;;;;;;14.89;74.33;93014.22;4964970;28;20479;-68
2023/10/20 10:45:31;;;;;;;33.63;29.93;;;;;;;15.09;73.42;92986.31;4966924;28;20974;-68
2023/10/20 10:48:05;;;;;;;55.60;31.73;;;;;;;14.80;74.08;92982.59;4965631;28;21421;-68
2023/10/20 10:50:32;;;;;;;47.50;29.33;;;;;;;14.84;74.76;92990.19;4964665;28;20441;-68
2023/10/20 10:52:58;;;;;;;35.30;28.63;;;;;;;14.66;75.35;92996.56;4966786;28;20424;-70
2023/10/20 10:55:24;;;;;;;33.43;28.47;;;;;;;14.59;76.27;92992.97;4961539;28;20549;-70
2023/10/20 10:57:51;;;;;;;38.67;32.47;;;;;;;14.64;76.17;92990.63;4966153;28;20421;-68
2023/10/20 11:00:21;;;;;;;38.07;33.93;;;;;;;14.65;75.95;92996.75;4964301;28;20523;-67
2023/10/20 11:02:48;;;;;;;36.17;31.47;;;;;;;14.58;76.21;93020.38;4962944;28;20437;-65
2023/10/20 11:05:15;;;;;;;35.53;31.70;;;;;;;14.59;76.56;93004.34;4966871;28;20469;-67
2023/10/20 11:07:40;;;;;;;32.40;29.00;;;;;;;14.40;76.89;93020.59;4965794;28;20437;-67
2023/10/20 11:10:07;;;;;;;33.87;28.70;;;;;;;14.43;77.05;93014.97;4968766;28;20459;-67
2023/10/20 11:12:34;;;;;;;32.83;28.77;;;;;;;14.44;77.10;93018.44;4951147;28;20186;-67
2023/10/20 11:15:00;;;;;;;30.43;27.17;;;;;;;14.47;77.28;93011.00;4963677;28;20839;-68
2023/10/20 11:17:26;;;;;;;32.57;29.27;;;;;;;14.60;76.52;92999.91;4967505;28;20443;-68
2023/10/20 11:19:51;;;;;;;31.80;28.33;;;;;;;14.58;76.59;93008.00;4966644;28;20800;-66
2023/10/20 11:22:16;;;;;;;30.93;26.63;;;;;;;14.70;76.52;93018.97;4969890;28;20209;-66
2023/10/20 11:24:49;;;;;;;30.63;27.33;;;;;;;14.86;75.76;93015.41;4966833;28;20349;-66
2023/10/20 11:27:15;;;;;;;28.63;25.70;;;;;;;14.74;76.57;93008.84;4967602;28;20318;-66
2023/10/20 11:29:42;;;;;;;29.87;25.70;;;;;;;14.73;76.78;93020.44;4967541;28;20526;-66
2023/10/20 11:32:10;;;;;;;30.43;26.30;;;;;;;14.80;76.24;93024.81;4967840;28;20178;-69
2023/10/20 11:34:36;;;;;;;32.00;25.67;;;;;;;15.04;75.99;93021.16;4965442;28;20450;-66
2023/10/20 11:37:03;;;;;;;26.67;23.87;;;;;;;15.21;75.24;93029.81;4968170;28;20495;-67
2023/10/20 11:39:30;;;;;;;27.07;23.83;;;;;;;15.14;75.32;93023.59;4972962;28;20413;-67
2023/10/20 11:41:56;;;;;;;27.73;24.73;;;;;;;15.16;75.44;93039.25;4966646;28;20762;-68
2023/10/20 11:44:24;;;;;;;23.97;21.63;;;;;;;15.02;75.54;93049.59;4967720;28;20861;-66
2023/10/20 11:46:52;;;;;;;27.00;23.17;;;;;;;14.98;76.40;93053.59;4968033;28;20484;-66
2023/10/20 11:49:18;;;;;;;29.40;24.23;;;;;;;15.19;75.89;93041.56;4967430;28;20417;-66
2023/10/20 11:51:44;;;;;;;31.30;23.37;;;;;;;15.28;74.92;93037.00;4966860;28;20452;-67
2023/10/20 11:54:09;;;;;;;27.07;23.03;;;;;;;15.37;75.29;93054.44;4965256;28;20429;-66